sensor_id;sensor_type;location;lat;lon;timestamp;P1;durP1;ratioP1;P2;durP2;ratioP2
39486;SDS011;25173;50.430;18.926;2022-12-07T00:01:47;15.38;;;12.32;;
39486;SDS011;25173;50.430;18.926;2022-12-07T00:04:48;12.07;;;9.07;;
39486;SDS011;25173;50.430;18.926;2022-12-07T00:07:49;15.57;;;10.27;;
39486;SDS011;25173;50.430;18.926;2022-12-07T00:10:50;13.00;;;8.88;;
39486;SDS011;25173;50.430;18.926;2022-12-07T00:13:51;16.17;;;10.57;;
39486;SDS011;25173;50.430;18.926;2022-12-07T00:16:53;14.27;;;9.27;;
39486;SDS011;25173;50.430;18.926;2022-12-07T00:19:54;16.85;;;11.40;;
39486;SDS011;25173;50.430;18.926;2022-12-07T00:22:54;14.18;;;10.55;;
39486;SDS011;25173;50.430;18.926;2022-12-07T00:25:55;16.83;;;11.40;;
39486;SDS011;25173;50.430;18.926;2022-12-07T00:28:57;18.17;;;12.73;;
39486;SDS011;25173;50.430;18.926;2022-12-07T00:32:00;17.30;;;11.73;;
39486;SDS011;25173;50.430;18.926;2022-12-07T00:35:00;17.92;;;12.50;;
39486;SDS011;25173;50.430;18.926;2022-12-07T00:38:01;17.25;;;12.82;;
39486;SDS011;25173;50.430;18.926;2022-12-07T00:41:03;26.50;;;19.50;;
39486;SDS011;25173;50.430;18.926;2022-12-07T00:44:05;16.20;;;10.82;;
39486;SDS011;25173;50.430;18.926;2022-12-07T00:47:06;20.52;;;11.73;;
39486;SDS011;25173;50.430;18.926;2022-12-07T00:50:07;19.58;;;11.50;;
39486;SDS011;25173;50.430;18.926;2022-12-07T00:53:07;19.73;;;14.85;;
39486;SDS011;25173;50.430;18.926;2022-12-07T00:56:09;15.25;;;11.13;;
39486;SDS011;25173;50.430;18.926;2022-12-07T00:59:14;20.65;;;12.57;;
39486;SDS011;25173;50.430;18.926;2022-12-07T01:02:15;31.00;;;18.58;;
39486;SDS011;25173;50.430;18.926;2022-12-07T01:05:16;36.35;;;19.55;;
39486;SDS011;25173;50.430;18.926;2022-12-07T01:08:16;31.25;;;18.27;;
39486;SDS011;25173;50.430;18.926;2022-12-07T01:11:19;23.58;;;14.57;;
39486;SDS011;25173;50.430;18.926;2022-12-07T01:14:22;23.87;;;13.33;;
39486;SDS011;25173;50.430;18.926;2022-12-07T01:17:22;22.98;;;15.07;;
39486;SDS011;25173;50.430;18.926;2022-12-07T01:20:23;25.63;;;17.00;;
39486;SDS011;25173;50.430;18.926;2022-12-07T01:23:24;22.42;;;14.85;;
39486;SDS011;25173;50.430;18.926;2022-12-07T01:26:24;33.88;;;19.83;;
39486;SDS011;25173;50.430;18.926;2022-12-07T01:29:25;30.95;;;18.67;;
39486;SDS011;25173;50.430;18.926;2022-12-07T01:32:26;25.98;;;15.70;;
39486;SDS011;25173;50.430;18.926;2022-12-07T01:35:27;35.28;;;22.05;;
39486;SDS011;25173;50.430;18.926;2022-12-07T01:38:29;48.22;;;25.50;;
39486;SDS011;25173;50.430;18.926;2022-12-07T01:41:32;33.13;;;19.52;;
39486;SDS011;25173;50.430;18.926;2022-12-07T01:45:15;35.25;;;20.98;;
39486;SDS011;25173;50.430;18.926;2022-12-07T01:51:40;23.40;;;16.52;;
39486;SDS011;25173;50.430;18.926;2022-12-07T01:54:46;17.02;;;12.25;;
39486;SDS011;25173;50.430;18.926;2022-12-07T01:57:50;17.60;;;12.30;;
39486;SDS011;25173;50.430;18.926;2022-12-07T02:00:54;21.80;;;14.93;;
39486;SDS011;25173;50.430;18.926;2022-12-07T02:03:54;22.17;;;13.95;;
39486;SDS011;25173;50.430;18.926;2022-12-07T02:06:55;17.33;;;11.02;;
39486;SDS011;25173;50.430;18.926;2022-12-07T02:10:11;18.48;;;11.27;;
39486;SDS011;25173;50.430;18.926;2022-12-07T02:13:16;15.57;;;10.93;;
39486;SDS011;25173;50.430;18.926;2022-12-07T02:23:35;17.33;;;10.93;;
39486;SDS011;25173;50.430;18.926;2022-12-07T02:30:07;21.27;;;11.30;;
39486;SDS011;25173;50.430;18.926;2022-12-07T02:33:52;18.75;;;13.15;;
39486;SDS011;25173;50.430;18.926;2022-12-07T02:36:38;23.23;;;13.75;;
39486;SDS011;25173;50.430;18.926;2022-12-07T02:39:51;22.55;;;12.30;;
39486;SDS011;25173;50.430;18.926;2022-12-07T02:43:04;28.70;;;17.30;;
39486;SDS011;25173;50.430;18.926;2022-12-07T02:46:14;27.50;;;15.13;;
39486;SDS011;25173;50.430;18.926;2022-12-07T02:49:17;21.65;;;14.13;;
39486;SDS011;25173;50.430;18.926;2022-12-07T02:52:19;18.02;;;12.52;;
39486;SDS011;25173;50.430;18.926;2022-12-07T02:55:21;18.42;;;14.13;;
39486;SDS011;25173;50.430;18.926;2022-12-07T03:05:20;20.75;;;14.70;;
39486;SDS011;25173;50.430;18.926;2022-12-07T03:08:58;22.25;;;15.35;;
39486;SDS011;25173;50.430;18.926;2022-12-07T03:15:39;19.40;;;12.68;;
39486;SDS011;25173;50.430;18.926;2022-12-07T03:18:48;20.70;;;13.25;;
39486;SDS011;25173;50.430;18.926;2022-12-07T03:22:03;23.80;;;14.48;;
39486;SDS011;25173;50.430;18.926;2022-12-07T03:25:10;26.27;;;15.10;;
39486;SDS011;25173;50.430;18.926;2022-12-07T03:28:14;25.87;;;15.80;;
39486;SDS011;25173;50.430;18.926;2022-12-07T03:31:19;25.00;;;16.17;;
39486;SDS011;25173;50.430;18.926;2022-12-07T03:37:42;31.48;;;18.73;;
39486;SDS011;25173;50.430;18.926;2022-12-07T03:40:50;29.40;;;16.67;;
39486;SDS011;25173;50.430;18.926;2022-12-07T03:43:58;31.90;;;19.52;;
39486;SDS011;25173;50.430;18.926;2022-12-07T03:50:11;32.33;;;20.25;;
39486;SDS011;25173;50.430;18.926;2022-12-07T03:53:24;32.95;;;20.95;;
39486;SDS011;25173;50.430;18.926;2022-12-07T03:56:34;25.27;;;16.75;;
39486;SDS011;25173;50.430;18.926;2022-12-07T03:59:36;25.05;;;14.35;;
39486;SDS011;25173;50.430;18.926;2022-12-07T04:02:38;22.35;;;14.85;;
39486;SDS011;25173;50.430;18.926;2022-12-07T04:05:40;20.20;;;13.45;;
39486;SDS011;25173;50.430;18.926;2022-12-07T04:08:42;23.80;;;15.85;;
39486;SDS011;25173;50.430;18.926;2022-12-07T04:11:43;23.40;;;15.05;;
39486;SDS011;25173;50.430;18.926;2022-12-07T04:14:44;24.10;;;15.68;;
39486;SDS011;25173;50.430;18.926;2022-12-07T04:17:44;24.65;;;16.38;;
39486;SDS011;25173;50.430;18.926;2022-12-07T04:20:45;21.75;;;15.13;;
39486;SDS011;25173;50.430;18.926;2022-12-07T04:23:46;19.83;;;14.05;;
39486;SDS011;25173;50.430;18.926;2022-12-07T04:26:47;21.27;;;14.85;;
39486;SDS011;25173;50.430;18.926;2022-12-07T04:29:48;17.35;;;13.20;;
39486;SDS011;25173;50.430;18.926;2022-12-07T04:32:48;21.30;;;15.65;;
39486;SDS011;25173;50.430;18.926;2022-12-07T04:35:49;18.77;;;12.80;;
39486;SDS011;25173;50.430;18.926;2022-12-07T04:38:49;21.30;;;13.57;;
39486;SDS011;25173;50.430;18.926;2022-12-07T04:41:50;18.83;;;14.55;;
39486;SDS011;25173;50.430;18.926;2022-12-07T04:44:51;20.05;;;13.02;;
39486;SDS011;25173;50.430;18.926;2022-12-07T04:47:51;15.40;;;11.82;;
39486;SDS011;25173;50.430;18.926;2022-12-07T04:50:52;17.58;;;12.57;;
39486;SDS011;25173;50.430;18.926;2022-12-07T04:53:53;16.02;;;11.23;;
39486;SDS011;25173;50.430;18.926;2022-12-07T04:56:55;15.43;;;10.27;;
39486;SDS011;25173;50.430;18.926;2022-12-07T04:59:56;14.65;;;10.18;;
39486;SDS011;25173;50.430;18.926;2022-12-07T05:02:56;11.82;;;8.52;;
39486;SDS011;25173;50.430;18.926;2022-12-07T05:05:57;12.88;;;8.55;;
39486;SDS011;25173;50.430;18.926;2022-12-07T05:08:58;14.95;;;9.40;;
39486;SDS011;25173;50.430;18.926;2022-12-07T05:11:58;12.95;;;8.38;;
39486;SDS011;25173;50.430;18.926;2022-12-07T05:14:59;11.70;;;8.88;;
39486;SDS011;25173;50.430;18.926;2022-12-07T05:17:59;11.50;;;7.40;;
39486;SDS011;25173;50.430;18.926;2022-12-07T05:21:00;13.80;;;10.40;;
39486;SDS011;25173;50.430;18.926;2022-12-07T05:24:01;14.35;;;10.68;;
39486;SDS011;25173;50.430;18.926;2022-12-07T05:27:01;13.85;;;10.05;;
39486;SDS011;25173;50.430;18.926;2022-12-07T05:30:02;11.60;;;9.27;;
39486;SDS011;25173;50.430;18.926;2022-12-07T05:33:04;11.25;;;8.07;;
39486;SDS011;25173;50.430;18.926;2022-12-07T05:36:05;15.00;;;8.30;;
39486;SDS011;25173;50.430;18.926;2022-12-07T05:39:09;14.00;;;8.48;;
39486;SDS011;25173;50.430;18.926;2022-12-07T05:42:10;15.77;;;8.35;;
39486;SDS011;25173;50.430;18.926;2022-12-07T05:45:14;11.23;;;7.90;;
39486;SDS011;25173;50.430;18.926;2022-12-07T05:48:15;11.68;;;7.78;;
39486;SDS011;25173;50.430;18.926;2022-12-07T05:51:16;12.75;;;7.93;;
39486;SDS011;25173;50.430;18.926;2022-12-07T05:54:17;12.45;;;8.00;;
39486;SDS011;25173;50.430;18.926;2022-12-07T05:57:18;198.82;;;81.90;;
39486;SDS011;25173;50.430;18.926;2022-12-07T06:00:19;233.23;;;127.07;;
39486;SDS011;25173;50.430;18.926;2022-12-07T06:03:19;109.47;;;47.38;;
39486;SDS011;25173;50.430;18.926;2022-12-07T06:06:20;35.55;;;14.80;;
39486;SDS011;25173;50.430;18.926;2022-12-07T06:09:21;108.35;;;59.40;;
39486;SDS011;25173;50.430;18.926;2022-12-07T06:12:23;11.68;;;8.05;;
39486;SDS011;25173;50.430;18.926;2022-12-07T06:15:38;53.08;;;15.73;;
39486;SDS011;25173;50.430;18.926;2022-12-07T06:18:39;99.60;;;34.50;;
39486;SDS011;25173;50.430;18.926;2022-12-07T06:21:39;120.70;;;79.05;;
39486;SDS011;25173;50.430;18.926;2022-12-07T06:24:40;66.20;;;25.20;;
39486;SDS011;25173;50.430;18.926;2022-12-07T06:27:41;13.85;;;8.52;;
39486;SDS011;25173;50.430;18.926;2022-12-07T06:30:41;71.32;;;31.25;;
39486;SDS011;25173;50.430;18.926;2022-12-07T06:33:42;13.20;;;8.30;;
39486;SDS011;25173;50.430;18.926;2022-12-07T06:36:43;16.77;;;9.10;;
39486;SDS011;25173;50.430;18.926;2022-12-07T06:39:44;50.33;;;21.95;;
39486;SDS011;25173;50.430;18.926;2022-12-07T06:42:45;33.53;;;25.20;;
39486;SDS011;25173;50.430;18.926;2022-12-07T06:45:46;38.63;;;15.27;;
39486;SDS011;25173;50.430;18.926;2022-12-07T06:48:46;13.63;;;7.78;;
39486;SDS011;25173;50.430;18.926;2022-12-07T06:51:47;15.40;;;8.80;;
39486;SDS011;25173;50.430;18.926;2022-12-07T06:54:48;26.10;;;19.05;;
39486;SDS011;25173;50.430;18.926;2022-12-07T06:57:49;33.47;;;15.13;;
39486;SDS011;25173;50.430;18.926;2022-12-07T07:00:49;18.83;;;10.02;;
39486;SDS011;25173;50.430;18.926;2022-12-07T07:03:50;16.60;;;8.95;;
39486;SDS011;25173;50.430;18.926;2022-12-07T07:06:51;14.85;;;8.10;;
39486;SDS011;25173;50.430;18.926;2022-12-07T07:09:51;20.88;;;16.02;;
39486;SDS011;25173;50.430;18.926;2022-12-07T07:12:52;45.50;;;17.23;;
39486;SDS011;25173;50.430;18.926;2022-12-07T07:15:53;29.60;;;12.00;;
39486;SDS011;25173;50.430;18.926;2022-12-07T07:18:54;27.02;;;13.10;;
39486;SDS011;25173;50.430;18.926;2022-12-07T07:21:55;12.60;;;9.02;;
39486;SDS011;25173;50.430;18.926;2022-12-07T07:24:55;10.32;;;7.47;;
39486;SDS011;25173;50.430;18.926;2022-12-07T07:27:56;14.73;;;9.48;;
39486;SDS011;25173;50.430;18.926;2022-12-07T07:30:57;27.30;;;13.38;;
39486;SDS011;25173;50.430;18.926;2022-12-07T07:33:57;15.60;;;10.00;;
39486;SDS011;25173;50.430;18.926;2022-12-07T07:36:58;18.38;;;11.43;;
39486;SDS011;25173;50.430;18.926;2022-12-07T07:39:58;60.75;;;33.25;;
39486;SDS011;25173;50.430;18.926;2022-12-07T07:42:59;39.08;;;20.48;;
39486;SDS011;25173;50.430;18.926;2022-12-07T07:46:00;18.17;;;11.50;;
39486;SDS011;25173;50.430;18.926;2022-12-07T07:49:00;22.95;;;14.27;;
39486;SDS011;25173;50.430;18.926;2022-12-07T07:52:01;17.80;;;13.35;;
39486;SDS011;25173;50.430;18.926;2022-12-07T07:55:02;21.63;;;14.63;;
39486;SDS011;25173;50.430;18.926;2022-12-07T07:58:03;17.27;;;11.40;;
39486;SDS011;25173;50.430;18.926;2022-12-07T08:01:06;28.30;;;12.48;;
39486;SDS011;25173;50.430;18.926;2022-12-07T08:04:07;16.92;;;12.25;;
39486;SDS011;25173;50.430;18.926;2022-12-07T08:07:08;16.35;;;10.80;;
39486;SDS011;25173;50.430;18.926;2022-12-07T08:10:09;48.10;;;20.10;;
39486;SDS011;25173;50.430;18.926;2022-12-07T08:13:14;21.67;;;12.93;;
39486;SDS011;25173;50.430;18.926;2022-12-07T08:16:16;29.17;;;14.73;;
39486;SDS011;25173;50.430;18.926;2022-12-07T08:19:16;24.83;;;14.75;;
39486;SDS011;25173;50.430;18.926;2022-12-07T08:22:17;21.15;;;15.15;;
39486;SDS011;25173;50.430;18.926;2022-12-07T08:25:18;30.15;;;15.88;;
39486;SDS011;25173;50.430;18.926;2022-12-07T08:28:19;26.83;;;14.23;;
39486;SDS011;25173;50.430;18.926;2022-12-07T08:31:20;28.23;;;13.63;;
39486;SDS011;25173;50.430;18.926;2022-12-07T08:34:20;20.05;;;11.65;;
39486;SDS011;25173;50.430;18.926;2022-12-07T08:37:21;20.73;;;13.98;;
39486;SDS011;25173;50.430;18.926;2022-12-07T08:40:22;18.77;;;12.35;;
39486;SDS011;25173;50.430;18.926;2022-12-07T08:43:22;37.20;;;16.25;;
39486;SDS011;25173;50.430;18.926;2022-12-07T08:46:25;22.13;;;13.85;;
39486;SDS011;25173;50.430;18.926;2022-12-07T08:49:37;17.35;;;12.48;;
39486;SDS011;25173;50.430;18.926;2022-12-07T08:52:50;13.63;;;9.85;;
39486;SDS011;25173;50.430;18.926;2022-12-07T08:55:53;28.38;;;16.50;;
39486;SDS011;25173;50.430;18.926;2022-12-07T08:58:56;32.75;;;15.85;;
39486;SDS011;25173;50.430;18.926;2022-12-07T09:01:58;12.80;;;9.70;;
39486;SDS011;25173;50.430;18.926;2022-12-07T09:04:58;27.05;;;16.33;;
39486;SDS011;25173;50.430;18.926;2022-12-07T09:07:59;27.55;;;17.75;;
39486;SDS011;25173;50.430;18.926;2022-12-07T09:11:01;20.25;;;13.52;;
39486;SDS011;25173;50.430;18.926;2022-12-07T09:14:02;25.50;;;14.30;;
39486;SDS011;25173;50.430;18.926;2022-12-07T09:17:07;19.63;;;14.57;;
39486;SDS011;25173;50.430;18.926;2022-12-07T09:20:09;25.45;;;16.38;;
39486;SDS011;25173;50.430;18.926;2022-12-07T09:23:10;33.03;;;21.08;;
39486;SDS011;25173;50.430;18.926;2022-12-07T09:26:10;37.10;;;24.85;;
39486;SDS011;25173;50.430;18.926;2022-12-07T09:29:11;36.92;;;24.08;;
39486;SDS011;25173;50.430;18.926;2022-12-07T09:32:12;33.83;;;22.45;;
39486;SDS011;25173;50.430;18.926;2022-12-07T09:35:13;38.63;;;25.98;;
39486;SDS011;25173;50.430;18.926;2022-12-07T09:38:13;32.90;;;22.05;;
39486;SDS011;25173;50.430;18.926;2022-12-07T09:41:14;35.03;;;22.65;;
39486;SDS011;25173;50.430;18.926;2022-12-07T09:44:18;30.92;;;19.35;;
39486;SDS011;25173;50.430;18.926;2022-12-07T09:47:23;42.97;;;26.08;;
39486;SDS011;25173;50.430;18.926;2022-12-07T09:50:25;45.85;;;26.90;;
39486;SDS011;25173;50.430;18.926;2022-12-07T09:53:32;28.45;;;18.65;;
39486;SDS011;25173;50.430;18.926;2022-12-07T09:56:34;33.92;;;23.33;;
39486;SDS011;25173;50.430;18.926;2022-12-07T09:59:35;32.45;;;23.17;;
39486;SDS011;25173;50.430;18.926;2022-12-07T10:05:39;58.10;;;33.58;;
39486;SDS011;25173;50.430;18.926;2022-12-07T10:08:44;52.17;;;28.63;;
39486;SDS011;25173;50.430;18.926;2022-12-07T10:11:57;49.72;;;29.20;;
39486;SDS011;25173;50.430;18.926;2022-12-07T10:15:04;50.47;;;28.13;;
39486;SDS011;25173;50.430;18.926;2022-12-07T10:18:14;51.95;;;31.15;;
39486;SDS011;25173;50.430;18.926;2022-12-07T10:21:20;44.70;;;27.50;;
39486;SDS011;25173;50.430;18.926;2022-12-07T10:24:26;47.90;;;28.30;;
39486;SDS011;25173;50.430;18.926;2022-12-07T10:27:29;45.67;;;26.23;;
39486;SDS011;25173;50.430;18.926;2022-12-07T10:30:32;64.15;;;32.65;;
39486;SDS011;25173;50.430;18.926;2022-12-07T10:33:37;41.47;;;25.23;;
39486;SDS011;25173;50.430;18.926;2022-12-07T10:36:48;62.10;;;32.00;;
39486;SDS011;25173;50.430;18.926;2022-12-07T10:39:50;56.85;;;31.20;;
39486;SDS011;25173;50.430;18.926;2022-12-07T10:56:35;63.87;;;33.07;;
39486;SDS011;25173;50.430;18.926;2022-12-07T11:03:39;79.00;;;46.05;;
39486;SDS011;25173;50.430;18.926;2022-12-07T11:20:11;56.70;;;34.92;;
39486;SDS011;25173;50.430;18.926;2022-12-07T11:23:45;48.47;;;28.80;;
39486;SDS011;25173;50.430;18.926;2022-12-07T11:30:23;36.03;;;22.63;;
39486;SDS011;25173;50.430;18.926;2022-12-07T11:33:48;36.08;;;21.58;;
39486;SDS011;25173;50.430;18.926;2022-12-07T11:37:00;41.23;;;24.30;;
39486;SDS011;25173;50.430;18.926;2022-12-07T11:40:13;42.67;;;25.73;;
39486;SDS011;25173;50.430;18.926;2022-12-07T11:43:21;52.10;;;30.77;;
39486;SDS011;25173;50.430;18.926;2022-12-07T11:46:27;39.15;;;23.40;;
39486;SDS011;25173;50.430;18.926;2022-12-07T11:49:41;25.60;;;16.95;;
39486;SDS011;25173;50.430;18.926;2022-12-07T11:52:48;29.67;;;18.85;;
39486;SDS011;25173;50.430;18.926;2022-12-07T11:56:14;29.88;;;20.10;;
39486;SDS011;25173;50.430;18.926;2022-12-07T11:59:19;30.13;;;20.77;;
39486;SDS011;25173;50.430;18.926;2022-12-07T12:02:32;35.45;;;26.33;;
39486;SDS011;25173;50.430;18.926;2022-12-07T12:05:39;25.20;;;18.88;;
39486;SDS011;25173;50.430;18.926;2022-12-07T12:08:43;18.08;;;13.88;;
39486;SDS011;25173;50.430;18.926;2022-12-07T12:15:26;17.27;;;11.52;;
39486;SDS011;25173;50.430;18.926;2022-12-07T12:18:44;18.55;;;11.65;;
39486;SDS011;25173;50.430;18.926;2022-12-07T12:21:48;15.35;;;11.25;;
39486;SDS011;25173;50.430;18.926;2022-12-07T12:24:56;19.60;;;13.80;;
39486;SDS011;25173;50.430;18.926;2022-12-07T12:27:58;22.65;;;15.45;;
39486;SDS011;25173;50.430;18.926;2022-12-07T12:31:13;29.48;;;16.75;;
39486;SDS011;25173;50.430;18.926;2022-12-07T12:34:31;21.25;;;14.57;;
39486;SDS011;25173;50.430;18.926;2022-12-07T12:37:41;21.10;;;13.70;;
39486;SDS011;25173;50.430;18.926;2022-12-07T12:40:43;22.75;;;14.18;;
39486;SDS011;25173;50.430;18.926;2022-12-07T12:43:48;26.92;;;16.48;;
39486;SDS011;25173;50.430;18.926;2022-12-07T12:46:53;23.17;;;14.95;;
39486;SDS011;25173;50.430;18.926;2022-12-07T12:53:32;25.83;;;15.77;;
39486;SDS011;25173;50.430;18.926;2022-12-07T12:56:45;21.45;;;12.20;;
39486;SDS011;25173;50.430;18.926;2022-12-07T13:02:55;26.20;;;15.32;;
39486;SDS011;25173;50.430;18.926;2022-12-07T13:12:26;45.38;;;27.83;;
39486;SDS011;25173;50.430;18.926;2022-12-07T13:24:34;38.22;;;24.25;;
39486;SDS011;25173;50.430;18.926;2022-12-07T13:27:37;39.65;;;28.92;;
39486;SDS011;25173;50.430;18.926;2022-12-07T13:37:37;97.68;;;59.88;;
39486;SDS011;25173;50.430;18.926;2022-12-07T13:40:38;83.20;;;43.13;;
39486;SDS011;25173;50.430;18.926;2022-12-07T13:43:42;83.95;;;39.60;;
39486;SDS011;25173;50.430;18.926;2022-12-07T13:50:28;74.05;;;39.85;;
39486;SDS011;25173;50.430;18.926;2022-12-07T13:56:32;30.75;;;18.88;;
39486;SDS011;25173;50.430;18.926;2022-12-07T13:59:34;40.50;;;26.30;;
39486;SDS011;25173;50.430;18.926;2022-12-07T14:02:54;26.30;;;17.05;;
39486;SDS011;25173;50.430;18.926;2022-12-07T14:06:03;25.58;;;17.23;;
39486;SDS011;25173;50.430;18.926;2022-12-07T14:09:29;22.15;;;14.55;;
39486;SDS011;25173;50.430;18.926;2022-12-07T14:12:31;31.10;;;18.92;;
39486;SDS011;25173;50.430;18.926;2022-12-07T14:15:33;20.55;;;12.18;;
39486;SDS011;25173;50.430;18.926;2022-12-07T14:18:37;17.65;;;11.32;;
39486;SDS011;25173;50.430;18.926;2022-12-07T14:21:39;19.48;;;13.82;;
39486;SDS011;25173;50.430;18.926;2022-12-07T14:24:43;37.67;;;22.75;;
39486;SDS011;25173;50.430;18.926;2022-12-07T14:30:55;27.15;;;16.77;;
39486;SDS011;25173;50.430;18.926;2022-12-07T14:33:59;32.05;;;18.40;;
39486;SDS011;25173;50.430;18.926;2022-12-07T14:37:00;75.80;;;40.38;;
39486;SDS011;25173;50.430;18.926;2022-12-07T14:40:01;38.72;;;22.85;;
39486;SDS011;25173;50.430;18.926;2022-12-07T14:43:02;30.58;;;16.33;;
39486;SDS011;25173;50.430;18.926;2022-12-07T14:46:07;159.02;;;76.32;;
39486;SDS011;25173;50.430;18.926;2022-12-07T14:49:09;65.82;;;32.22;;
39486;SDS011;25173;50.430;18.926;2022-12-07T14:52:13;33.92;;;18.50;;
39486;SDS011;25173;50.430;18.926;2022-12-07T14:55:27;65.45;;;34.95;;
39486;SDS011;25173;50.430;18.926;2022-12-07T14:58:30;34.08;;;20.05;;
39486;SDS011;25173;50.430;18.926;2022-12-07T15:01:30;39.42;;;23.35;;
39486;SDS011;25173;50.430;18.926;2022-12-07T15:04:31;18.00;;;12.55;;
39486;SDS011;25173;50.430;18.926;2022-12-07T15:07:31;94.85;;;50.85;;
39486;SDS011;25173;50.430;18.926;2022-12-07T15:10:33;31.92;;;18.52;;
39486;SDS011;25173;50.430;18.926;2022-12-07T15:13:34;30.15;;;18.67;;
39486;SDS011;25173;50.430;18.926;2022-12-07T15:16:53;42.92;;;21.60;;
39486;SDS011;25173;50.430;18.926;2022-12-07T15:19:53;44.03;;;23.73;;
39486;SDS011;25173;50.430;18.926;2022-12-07T15:22:54;46.55;;;25.40;;
39486;SDS011;25173;50.430;18.926;2022-12-07T15:25:55;44.83;;;27.13;;
39486;SDS011;25173;50.430;18.926;2022-12-07T15:28:55;42.47;;;26.58;;
39486;SDS011;25173;50.430;18.926;2022-12-07T15:31:56;45.60;;;28.88;;
39486;SDS011;25173;50.430;18.926;2022-12-07T15:34:57;37.50;;;25.92;;
39486;SDS011;25173;50.430;18.926;2022-12-07T15:37:58;34.85;;;23.30;;
39486;SDS011;25173;50.430;18.926;2022-12-07T15:40:59;38.30;;;27.45;;
39486;SDS011;25173;50.430;18.926;2022-12-07T15:43:59;37.38;;;25.65;;
39486;SDS011;25173;50.430;18.926;2022-12-07T15:47:18;31.42;;;22.13;;
39486;SDS011;25173;50.430;18.926;2022-12-07T15:50:19;38.22;;;28.17;;
39486;SDS011;25173;50.430;18.926;2022-12-07T15:53:20;41.22;;;30.50;;
39486;SDS011;25173;50.430;18.926;2022-12-07T15:56:21;34.63;;;27.65;;
39486;SDS011;25173;50.430;18.926;2022-12-07T15:59:22;33.53;;;23.33;;
39486;SDS011;25173;50.430;18.926;2022-12-07T16:02:30;27.20;;;19.23;;
39486;SDS011;25173;50.430;18.926;2022-12-07T16:05:30;34.28;;;24.27;;
39486;SDS011;25173;50.430;18.926;2022-12-07T16:08:31;40.30;;;23.85;;
39486;SDS011;25173;50.430;18.926;2022-12-07T16:11:32;36.47;;;22.25;;
39486;SDS011;25173;50.430;18.926;2022-12-07T16:14:33;45.78;;;27.45;;
39486;SDS011;25173;50.430;18.926;2022-12-07T16:17:35;25.73;;;17.20;;
39486;SDS011;25173;50.430;18.926;2022-12-07T16:20:35;32.15;;;19.77;;
39486;SDS011;25173;50.430;18.926;2022-12-07T16:23:36;39.00;;;24.92;;
39486;SDS011;25173;50.430;18.926;2022-12-07T16:26:37;35.28;;;20.45;;
39486;SDS011;25173;50.430;18.926;2022-12-07T16:29:37;49.20;;;28.27;;
39486;SDS011;25173;50.430;18.926;2022-12-07T16:32:38;81.30;;;44.20;;
39486;SDS011;25173;50.430;18.926;2022-12-07T16:35:39;41.53;;;23.92;;
39486;SDS011;25173;50.430;18.926;2022-12-07T16:38:41;51.50;;;30.63;;
39486;SDS011;25173;50.430;18.926;2022-12-07T16:41:43;59.35;;;33.70;;
39486;SDS011;25173;50.430;18.926;2022-12-07T16:44:44;56.72;;;33.80;;
39486;SDS011;25173;50.430;18.926;2022-12-07T16:47:44;57.13;;;29.75;;
39486;SDS011;25173;50.430;18.926;2022-12-07T16:50:45;44.15;;;26.40;;
39486;SDS011;25173;50.430;18.926;2022-12-07T16:53:47;58.15;;;32.05;;
39486;SDS011;25173;50.430;18.926;2022-12-07T16:56:47;43.25;;;26.23;;
39486;SDS011;25173;50.430;18.926;2022-12-07T16:59:48;30.88;;;19.75;;
39486;SDS011;25173;50.430;18.926;2022-12-07T17:02:58;41.17;;;24.58;;
39486;SDS011;25173;50.430;18.926;2022-12-07T17:06:10;47.70;;;31.15;;
39486;SDS011;25173;50.430;18.926;2022-12-07T17:09:15;57.17;;;34.88;;
39486;SDS011;25173;50.430;18.926;2022-12-07T17:12:16;51.88;;;32.67;;
39486;SDS011;25173;50.430;18.926;2022-12-07T17:15:17;30.63;;;20.90;;
39486;SDS011;25173;50.430;18.926;2022-12-07T17:18:18;37.83;;;22.42;;
39486;SDS011;25173;50.430;18.926;2022-12-07T17:21:19;36.97;;;26.80;;
39486;SDS011;25173;50.430;18.926;2022-12-07T17:24:20;42.42;;;28.70;;
39486;SDS011;25173;50.430;18.926;2022-12-07T17:27:21;54.47;;;36.60;;
39486;SDS011;25173;50.430;18.926;2022-12-07T17:30:21;56.58;;;35.75;;
39486;SDS011;25173;50.430;18.926;2022-12-07T17:33:22;41.70;;;26.13;;
39486;SDS011;25173;50.430;18.926;2022-12-07T17:36:25;54.03;;;30.60;;
39486;SDS011;25173;50.430;18.926;2022-12-07T17:39:28;50.58;;;28.73;;
39486;SDS011;25173;50.430;18.926;2022-12-07T17:42:28;100.97;;;53.17;;
39486;SDS011;25173;50.430;18.926;2022-12-07T17:45:47;122.00;;;68.10;;
39486;SDS011;25173;50.430;18.926;2022-12-07T17:48:47;98.97;;;56.60;;
39486;SDS011;25173;50.430;18.926;2022-12-07T17:51:48;111.78;;;59.17;;
39486;SDS011;25173;50.430;18.926;2022-12-07T17:55:08;113.72;;;59.60;;
39486;SDS011;25173;50.430;18.926;2022-12-07T17:58:09;78.70;;;43.75;;
39486;SDS011;25173;50.430;18.926;2022-12-07T18:01:09;81.55;;;47.08;;
39486;SDS011;25173;50.430;18.926;2022-12-07T18:04:10;45.60;;;30.80;;
39486;SDS011;25173;50.430;18.926;2022-12-07T18:07:11;33.65;;;20.73;;
39486;SDS011;25173;50.430;18.926;2022-12-07T18:10:11;110.85;;;68.40;;
39486;SDS011;25173;50.430;18.926;2022-12-07T18:13:12;23.65;;;15.70;;
39486;SDS011;25173;50.430;18.926;2022-12-07T18:16:32;25.73;;;15.20;;
39486;SDS011;25173;50.430;18.926;2022-12-07T18:19:35;23.58;;;13.85;;
39486;SDS011;25173;50.430;18.926;2022-12-07T18:22:36;28.27;;;14.57;;
39486;SDS011;25173;50.430;18.926;2022-12-07T18:25:39;28.23;;;17.02;;
39486;SDS011;25173;50.430;18.926;2022-12-07T18:28:43;39.40;;;23.27;;
39486;SDS011;25173;50.430;18.926;2022-12-07T18:31:54;63.40;;;35.63;;
39486;SDS011;25173;50.430;18.926;2022-12-07T18:34:55;95.00;;;51.13;;
39486;SDS011;25173;50.430;18.926;2022-12-07T18:37:56;95.38;;;40.10;;
39486;SDS011;25173;50.430;18.926;2022-12-07T18:40:57;111.45;;;42.70;;
39486;SDS011;25173;50.430;18.926;2022-12-07T18:43:57;70.55;;;31.60;;
39486;SDS011;25173;50.430;18.926;2022-12-07T18:46:58;23.58;;;14.63;;
39486;SDS011;25173;50.430;18.926;2022-12-07T18:49:59;113.35;;;50.60;;
39486;SDS011;25173;50.430;18.926;2022-12-07T18:53:00;119.95;;;50.08;;
39486;SDS011;25173;50.430;18.926;2022-12-07T18:59:17;51.67;;;25.92;;
39486;SDS011;25173;50.430;18.926;2022-12-07T19:02:36;66.63;;;33.88;;
39486;SDS011;25173;50.430;18.926;2022-12-07T19:05:37;108.95;;;53.35;;
39486;SDS011;25173;50.430;18.926;2022-12-07T19:08:37;109.30;;;48.28;;
39486;SDS011;25173;50.430;18.926;2022-12-07T19:11:38;155.80;;;70.45;;
39486;SDS011;25173;50.430;18.926;2022-12-07T19:14:48;92.55;;;67.20;;
39486;SDS011;25173;50.430;18.926;2022-12-07T19:17:49;67.47;;;49.67;;
39486;SDS011;25173;50.430;18.926;2022-12-07T19:20:49;52.30;;;37.63;;
39486;SDS011;25173;50.430;18.926;2022-12-07T19:23:50;51.63;;;31.95;;
39486;SDS011;25173;50.430;18.926;2022-12-07T19:26:51;48.47;;;28.40;;
39486;SDS011;25173;50.430;18.926;2022-12-07T19:29:52;40.25;;;24.27;;
39486;SDS011;25173;50.430;18.926;2022-12-07T19:32:53;61.45;;;36.65;;